sensor_id;sensor_type;location;lat;lon;timestamp;pressure;altitude;pressure_sealevel;temperature;humidity
62124;BME280;48110;47.532;19.078;2022-07-29T00:00:12;100347.94;;;22.62;57.91
62124;BME280;48110;47.532;19.078;2022-07-29T00:03:15;100346.56;;;22.59;56.02
62124;BME280;48110;47.532;19.078;2022-07-29T00:06:18;100343.88;;;22.59;56.04
62124;BME280;48110;47.532;19.078;2022-07-29T00:09:21;100349.59;;;22.63;56.58
62124;BME280;48110;47.532;19.078;2022-07-29T00:12:24;100351.16;;;22.59;56.69
62124;BME280;48110;47.532;19.078;2022-07-29T00:15:28;100342.00;;;22.60;56.70
62124;BME280;48110;47.532;19.078;2022-07-29T00:18:31;100342.81;;;22.60;56.38
62124;BME280;48110;47.532;19.078;2022-07-29T00:21:34;100344.78;;;22.65;56.30
62124;BME280;48110;47.532;19.078;2022-07-29T00:24:37;100347.78;;;22.68;56.35
62124;BME280;48110;47.532;19.078;2022-07-29T00:27:40;100343.03;;;22.59;56.44
62124;BME280;48110;47.532;19.078;2022-07-29T00:30:42;100340.75;;;22.67;56.01
62124;BME280;48110;47.532;19.078;2022-07-29T00:33:45;100345.44;;;22.72;55.06
62124;BME280;48110;47.532;19.078;2022-07-29T00:36:48;100350.91;;;22.77;55.08
62124;BME280;48110;47.532;19.078;2022-07-29T00:39:51;100351.00;;;22.82;54.98
62124;BME280;48110;47.532;19.078;2022-07-29T00:42:53;100347.78;;;22.68;55.42
62124;BME280;48110;47.532;19.078;2022-07-29T00:45:56;100351.47;;;22.62;56.51
62124;BME280;48110;47.532;19.078;2022-07-29T00:48:58;100347.31;;;22.54;56.77
62124;BME280;48110;47.532;19.078;2022-07-29T00:52:05;100341.91;;;22.54;56.19
62124;BME280;48110;47.532;19.078;2022-07-29T00:55:10;100345.91;;;22.52;57.02
62124;BME280;48110;47.532;19.078;2022-07-29T00:58:14;100342.66;;;22.50;56.72
62124;BME280;48110;47.532;19.078;2022-07-29T01:01:17;100341.75;;;22.44;57.04
62124;BME280;48110;47.532;19.078;2022-07-29T01:04:20;100343.53;;;22.39;56.78
62124;BME280;48110;47.532;19.078;2022-07-29T01:07:25;100348.28;;;22.32;57.15
62124;BME280;48110;47.532;19.078;2022-07-29T01:10:29;100339.84;;;22.28;57.34
62124;BME280;48110;47.532;19.078;2022-07-29T01:13:32;100335.41;;;22.22;57.49
62124;BME280;48110;47.532;19.078;2022-07-29T01:16:43;100333.31;;;22.24;57.69
62124;BME280;48110;47.532;19.078;2022-07-29T01:26:52;100336.84;;;22.25;58.43
62124;BME280;48110;47.532;19.078;2022-07-29T01:29:58;100333.22;;;22.19;58.40
62124;BME280;48110;47.532;19.078;2022-07-29T01:33:06;100334.53;;;22.17;57.97
62124;BME280;48110;47.532;19.078;2022-07-29T01:36:17;100325.25;;;22.13;58.99
62124;BME280;48110;47.532;19.078;2022-07-29T01:39:27;100324.03;;;22.03;58.88
62124;BME280;48110;47.532;19.078;2022-07-29T01:42:37;100323.94;;;21.98;58.87
62124;BME280;48110;47.532;19.078;2022-07-29T01:45:44;100333.22;;;22.02;59.16
62124;BME280;48110;47.532;19.078;2022-07-29T01:48:50;100331.91;;;22.05;60.11
62124;BME280;48110;47.532;19.078;2022-07-29T01:52:03;100326.62;;;21.98;60.09
62124;BME280;48110;47.532;19.078;2022-07-29T01:55:13;100336.25;;;22.06;60.57
62124;BME280;48110;47.532;19.078;2022-07-29T01:58:17;100331.00;;;21.99;60.94
62124;BME280;48110;47.532;19.078;2022-07-29T02:01:22;100328.16;;;22.06;60.82
62124;BME280;48110;47.532;19.078;2022-07-29T02:04:28;100326.25;;;22.06;61.40
62124;BME280;48110;47.532;19.078;2022-07-29T02:07:32;100327.00;;;22.02;61.65
62124;BME280;48110;47.532;19.078;2022-07-29T02:10:37;100325.25;;;21.96;62.27
62124;BME280;48110;47.532;19.078;2022-07-29T02:13:43;100325.63;;;21.88;62.52
62124;BME280;48110;47.532;19.078;2022-07-29T02:16:49;100330.12;;;21.82;62.61
62124;BME280;48110;47.532;19.078;2022-07-29T02:19:56;100336.44;;;21.88;62.99
62124;BME280;48110;47.532;19.078;2022-07-29T02:23:03;100327.75;;;21.86;62.91
62124;BME280;48110;47.532;19.078;2022-07-29T02:26:07;100323.16;;;21.86;63.96
62124;BME280;48110;47.532;19.078;2022-07-29T02:29:12;100320.12;;;21.83;63.12
62124;BME280;48110;47.532;19.078;2022-07-29T02:32:17;100319.97;;;21.89;62.67
62124;BME280;48110;47.532;19.078;2022-07-29T02:35:22;100323.41;;;21.85;62.10
62124;BME280;48110;47.532;19.078;2022-07-29T02:38:27;100320.12;;;21.83;61.95
62124;BME280;48110;47.532;19.078;2022-07-29T02:41:55;100317.59;;;21.76;62.02
62124;BME280;48110;47.532;19.078;2022-07-29T02:45:00;100315.06;;;21.86;63.22
62124;BME280;48110;47.532;19.078;2022-07-29T02:48:07;100318.53;;;21.70;62.57
62124;BME280;48110;47.532;19.078;2022-07-29T02:51:18;100311.47;;;21.52;62.79
62124;BME280;48110;47.532;19.078;2022-07-29T02:54:46;100316.91;;;21.41;63.20
62124;BME280;48110;47.532;19.078;2022-07-29T02:57:57;100311.75;;;21.39;63.25
62124;BME280;48110;47.532;19.078;2022-07-29T03:01:13;100319.38;;;21.31;63.53
62124;BME280;48110;47.532;19.078;2022-07-29T03:04:24;100312.28;;;21.24;64.00
62124;BME280;48110;47.532;19.078;2022-07-29T03:07:29;100321.66;;;21.22;64.74
62124;BME280;48110;47.532;19.078;2022-07-29T03:10:32;100322.25;;;21.24;64.40
62124;BME280;48110;47.532;19.078;2022-07-29T03:13:37;100316.16;;;21.17;64.71
62124;BME280;48110;47.532;19.078;2022-07-29T03:16:40;100317.47;;;21.14;65.62
62124;BME280;48110;47.532;19.078;2022-07-29T03:19:43;100320.94;;;21.27;65.08
62124;BME280;48110;47.532;19.078;2022-07-29T03:22:46;100322.44;;;21.34;64.74
62124;BME280;48110;47.532;19.078;2022-07-29T03:25:52;100322.69;;;21.33;65.07
62124;BME280;48110;47.532;19.078;2022-07-29T03:28:55;100322.69;;;21.33;65.05
62124;BME280;48110;47.532;19.078;2022-07-29T03:31:58;100331.50;;;21.28;65.08
62124;BME280;48110;47.532;19.078;2022-07-29T03:35:01;100325.16;;;21.22;65.63
62124;BME280;48110;47.532;19.078;2022-07-29T03:38:04;100322.25;;;21.24;65.82
62124;BME280;48110;47.532;19.078;2022-07-29T03:41:09;100326.59;;;21.25;65.93
62124;BME280;48110;47.532;19.078;2022-07-29T03:44:13;100316.03;;;21.23;66.28
62124;BME280;48110;47.532;19.078;2022-07-29T03:47:20;100316.84;;;21.24;66.51
62124;BME280;48110;47.532;19.078;2022-07-29T03:50:45;100324.56;;;21.20;66.69
62124;BME280;48110;47.532;19.078;2022-07-29T03:53:48;100319.91;;;21.16;67.09
62124;BME280;48110;47.532;19.078;2022-07-29T03:56:52;100333.03;;;21.12;68.16
62124;BME280;48110;47.532;19.078;2022-07-29T03:59:55;100333.72;;;21.08;68.61
62124;BME280;48110;47.532;19.078;2022-07-29T04:02:59;100335.03;;;21.05;68.01
62124;BME280;48110;47.532;19.078;2022-07-29T04:06:04;100339.03;;;21.03;68.97
62124;BME280;48110;47.532;19.078;2022-07-29T04:09:10;100334.22;;;21.05;68.84
62124;BME280;48110;47.532;19.078;2022-07-29T04:12:13;100329.97;;;21.09;68.45
62124;BME280;48110;47.532;19.078;2022-07-29T04:15:16;100343.00;;;21.12;68.22
62124;BME280;48110;47.532;19.078;2022-07-29T04:18:18;100335.28;;;21.15;68.13
62124;BME280;48110;47.532;19.078;2022-07-29T04:21:21;100339.94;;;21.08;69.79
62124;BME280;48110;47.532;19.078;2022-07-29T04:24:24;100348.87;;;21.09;68.87
62124;BME280;48110;47.532;19.078;2022-07-29T04:27:27;100340.91;;;21.14;70.22
62124;BME280;48110;47.532;19.078;2022-07-29T04:30:31;100338.00;;;21.15;68.66
62124;BME280;48110;47.532;19.078;2022-07-29T04:33:35;100340.44;;;21.17;69.27
62124;BME280;48110;47.532;19.078;2022-07-29T04:36:38;100339.72;;;21.21;68.79
62124;BME280;48110;47.532;19.078;2022-07-29T04:39:40;100338.87;;;21.21;69.34
62124;BME280;48110;47.532;19.078;2022-07-29T04:42:43;100339.59;;;21.28;68.26
62124;BME280;48110;47.532;19.078;2022-07-29T04:45:49;100343.94;;;21.29;68.32
62124;BME280;48110;47.532;19.078;2022-07-29T04:48:52;100336.84;;;21.40;68.81
62124;BME280;48110;47.532;19.078;2022-07-29T04:51:54;100345.41;;;21.48;67.63
62124;BME280;48110;47.532;19.078;2022-07-29T04:54:57;100347.50;;;21.46;67.35
62124;BME280;48110;47.532;19.078;2022-07-29T04:58:00;100343.03;;;21.52;67.27
62124;BME280;48110;47.532;19.078;2022-07-29T05:01:04;100344.72;;;21.69;65.99
62124;BME280;48110;47.532;19.078;2022-07-29T05:04:06;100345.44;;;21.65;66.09
62124;BME280;48110;47.532;19.078;2022-07-29T05:07:09;100349.84;;;21.83;65.94
62124;BME280;48110;47.532;19.078;2022-07-29T05:10:12;100348.25;;;21.98;65.48
62124;BME280;48110;47.532;19.078;2022-07-29T05:13:15;100353.59;;;22.10;64.55
62124;BME280;48110;47.532;19.078;2022-07-29T05:16:18;100354.44;;;22.10;64.43
62124;BME280;48110;47.532;19.078;2022-07-29T05:19:21;100344.63;;;22.21;64.11
62124;BME280;48110;47.532;19.078;2022-07-29T05:22:23;100349.84;;;22.28;63.96
62124;BME280;48110;47.532;19.078;2022-07-29T05:25:27;100342.22;;;22.41;63.67
62124;BME280;48110;47.532;19.078;2022-07-29T05:28:45;100348.97;;;22.72;63.49
62124;BME280;48110;47.532;19.078;2022-07-29T05:31:48;100344.78;;;22.65;62.38
62124;BME280;48110;47.532;19.078;2022-07-29T05:34:51;100356.25;;;22.88;62.88
62124;BME280;48110;47.532;19.078;2022-07-29T05:37:53;100349.78;;;23.11;62.63
62124;BME280;48110;47.532;19.078;2022-07-29T05:40:57;100344.00;;;23.03;61.36
62124;BME280;48110;47.532;19.078;2022-07-29T05:44:01;100359.56;;;22.95;60.64
62124;BME280;48110;47.532;19.078;2022-07-29T05:47:05;100352.09;;;23.03;61.14
62124;BME280;48110;47.532;19.078;2022-07-29T05:50:08;100354.69;;;23.14;61.12
62124;BME280;48110;47.532;19.078;2022-07-29T05:53:12;100355.91;;;23.23;62.88
62124;BME280;48110;47.532;19.078;2022-07-29T05:56:22;100349.44;;;23.46;62.57
62124;BME280;48110;47.532;19.078;2022-07-29T05:59:24;100355.59;;;23.42;61.54
62124;BME280;48110;47.532;19.078;2022-07-29T06:02:32;100359.53;;;23.34;61.66
62124;BME280;48110;47.532;19.078;2022-07-29T06:05:35;100354.63;;;23.48;61.03
62124;BME280;48110;47.532;19.078;2022-07-29T06:08:37;100357.62;;;23.78;60.37
62124;BME280;48110;47.532;19.078;2022-07-29T06:11:41;100353.56;;;23.75;59.79
62124;BME280;48110;47.532;19.078;2022-07-29T06:14:43;100360.09;;;23.53;60.59
62124;BME280;48110;47.532;19.078;2022-07-29T06:17:46;100362.94;;;23.68;60.55
62124;BME280;48110;47.532;19.078;2022-07-29T06:21:07;100359.41;;;23.89;57.54
62124;BME280;48110;47.532;19.078;2022-07-29T06:24:11;100366.50;;;24.22;55.44
62124;BME280;48110;47.532;19.078;2022-07-29T06:27:15;100363.56;;;24.23;54.43
62124;BME280;48110;47.532;19.078;2022-07-29T06:30:18;100362.56;;;24.08;55.52
62124;BME280;48110;47.532;19.078;2022-07-29T06:33:21;100366.66;;;24.37;56.28
62124;BME280;48110;47.532;19.078;2022-07-29T06:36:24;100355.91;;;24.52;54.35
62124;BME280;48110;47.532;19.078;2022-07-29T06:39:27;100368.12;;;24.55;54.61
62124;BME280;48110;47.532;19.078;2022-07-29T06:42:30;100367.22;;;24.76;53.97
62124;BME280;48110;47.532;19.078;2022-07-29T06:45:35;100375.00;;;25.04;52.01
62124;BME280;48110;47.532;19.078;2022-07-29T06:48:39;100372.34;;;25.15;51.19
62124;BME280;48110;47.532;19.078;2022-07-29T06:51:42;100374.62;;;25.38;51.16
62124;BME280;48110;47.532;19.078;2022-07-29T06:54:45;100381.03;;;25.64;49.89
62124;BME280;48110;47.532;19.078;2022-07-29T06:57:50;100379.47;;;25.88;50.30
62124;BME280;48110;47.532;19.078;2022-07-29T07:00:54;100370.53;;;26.08;48.54
62124;BME280;48110;47.532;19.078;2022-07-29T07:03:58;100376.75;;;25.93;48.61
62124;BME280;48110;47.532;19.078;2022-07-29T07:07:00;100365.66;;;26.25;47.53
62124;BME280;48110;47.532;19.078;2022-07-29T07:10:04;100371.66;;;26.57;46.57
62124;BME280;48110;47.532;19.078;2022-07-29T07:13:07;100377.62;;;26.74;46.51
62124;BME280;48110;47.532;19.078;2022-07-29T07:16:09;100375.72;;;27.00;45.89
62124;BME280;48110;47.532;19.078;2022-07-29T07:19:13;100367.34;;;27.56;44.52
62124;BME280;48110;47.532;19.078;2022-07-29T07:22:16;100366.91;;;27.88;43.74
62124;BME280;48110;47.532;19.078;2022-07-29T07:25:18;100371.34;;;28.18;41.74
62124;BME280;48110;47.532;19.078;2022-07-29T07:28:21;100361.41;;;28.37;42.19
62124;BME280;48110;47.532;19.078;2022-07-29T07:31:27;100359.34;;;29.34;39.94
62124;BME280;48110;47.532;19.078;2022-07-29T07:34:29;100361.09;;;30.23;38.67
62124;BME280;48110;47.532;19.078;2022-07-29T07:37:33;100360.25;;;30.42;37.93
62124;BME280;48110;47.532;19.078;2022-07-29T07:40:35;100350.88;;;30.29;37.54
62124;BME280;48110;47.532;19.078;2022-07-29T07:43:39;100368.03;;;30.35;37.28
62124;BME280;48110;47.532;19.078;2022-07-29T07:46:42;100363.13;;;30.50;37.22
62124;BME280;48110;47.532;19.078;2022-07-29T07:49:47;100352.09;;;31.01;37.04
62124;BME280;48110;47.532;19.078;2022-07-29T07:52:52;100364.50;;;31.13;36.46
62124;BME280;48110;47.532;19.078;2022-07-29T07:55:55;100361.31;;;31.96;34.86
62124;BME280;48110;47.532;19.078;2022-07-29T07:59:14;100367.44;;;31.93;35.79
62124;BME280;48110;47.532;19.078;2022-07-29T08:02:17;100351.12;;;32.10;34.24
62124;BME280;48110;47.532;19.078;2022-07-29T08:05:20;100352.91;;;32.28;34.05
62124;BME280;48110;47.532;19.078;2022-07-29T08:08:23;100349.91;;;31.67;35.92
62124;BME280;48110;47.532;19.078;2022-07-29T08:11:26;100344.72;;;33.38;33.13
62124;BME280;48110;47.532;19.078;2022-07-29T08:14:30;100347.34;;;33.52;32.29
62124;BME280;48110;47.532;19.078;2022-07-29T08:17:33;100350.62;;;34.40;31.14
62124;BME280;48110;47.532;19.078;2022-07-29T08:20:37;100346.81;;;34.62;30.19
62124;BME280;48110;47.532;19.078;2022-07-29T08:23:43;100349.19;;;33.74;30.76
62124;BME280;48110;47.532;19.078;2022-07-29T08:27:00;100347.78;;;33.45;31.64
62124;BME280;48110;47.532;19.078;2022-07-29T08:30:04;100347.78;;;35.12;29.62
62124;BME280;48110;47.532;19.078;2022-07-29T08:33:07;100341.22;;;35.55;28.78
62124;BME280;48110;47.532;19.078;2022-07-29T08:36:09;100353.00;;;36.14;27.65
62124;BME280;48110;47.532;19.078;2022-07-29T08:39:12;100338.72;;;37.14;26.64
62124;BME280;48110;47.532;19.078;2022-07-29T08:42:15;100345.00;;;36.66;26.04
62124;BME280;48110;47.532;19.078;2022-07-29T08:45:20;100348.66;;;36.04;27.54
62124;BME280;48110;47.532;19.078;2022-07-29T08:48:24;100344.31;;;36.36;27.07
62124;BME280;48110;47.532;19.078;2022-07-29T08:51:27;100338.94;;;37.46;26.78
62124;BME280;48110;47.532;19.078;2022-07-29T08:54:30;100343.78;;;38.01;25.58
62124;BME280;48110;47.532;19.078;2022-07-29T08:57:35;100330.59;;;38.10;25.47
62124;BME280;48110;47.532;19.078;2022-07-29T09:00:42;100336.06;;;37.42;25.22
62124;BME280;48110;47.532;19.078;2022-07-29T09:03:46;100328.66;;;37.46;25.84
62124;BME280;48110;47.532;19.078;2022-07-29T09:06:52;100333.22;;;38.62;24.03
62124;BME280;48110;47.532;19.078;2022-07-29T09:09:56;100327.31;;;38.48;24.54
62124;BME280;48110;47.532;19.078;2022-07-29T09:12:59;100332.13;;;39.45;23.04
62124;BME280;48110;47.532;19.078;2022-07-29T09:16:02;100324.41;;;39.23;22.35
62124;BME280;48110;47.532;19.078;2022-07-29T09:19:23;100325.88;;;39.32;23.19
62124;BME280;48110;47.532;19.078;2022-07-29T09:22:29;100324.72;;;38.86;23.69
62124;BME280;48110;47.532;19.078;2022-07-29T09:25:41;100311.56;;;38.08;23.95
62124;BME280;48110;47.532;19.078;2022-07-29T09:28:44;100320.12;;;39.41;22.95
62124;BME280;48110;47.532;19.078;2022-07-29T09:31:49;100316.13;;;40.15;21.79
62124;BME280;48110;47.532;19.078;2022-07-29T09:35:18;100314.91;;;40.13;21.58
62124;BME280;48110;47.532;19.078;2022-07-29T09:38:21;100308.44;;;41.19;20.46
62124;BME280;48110;47.532;19.078;2022-07-29T09:41:24;100299.88;;;40.82;19.88
62124;BME280;48110;47.532;19.078;2022-07-29T09:44:43;100298.03;;;37.79;23.58
62124;BME280;48110;47.532;19.078;2022-07-29T09:47:47;100293.78;;;39.70;22.46
62124;BME280;48110;47.532;19.078;2022-07-29T09:50:52;100294.84;;;41.14;20.80
62124;BME280;48110;47.532;19.078;2022-07-29T09:53:54;100290.25;;;41.55;20.09
62124;BME280;48110;47.532;19.078;2022-07-29T09:56:57;100279.72;;;41.41;18.85
62124;BME280;48110;47.532;19.078;2022-07-29T10:00:08;100277.44;;;40.94;19.76
62124;BME280;48110;47.532;19.078;2022-07-29T10:03:14;100270.66;;;41.18;19.27
62124;BME280;48110;47.532;19.078;2022-07-29T10:06:18;100268.84;;;39.54;21.48
62124;BME280;48110;47.532;19.078;2022-07-29T10:09:21;100266.94;;;38.73;21.64
62124;BME280;48110;47.532;19.078;2022-07-29T10:12:24;100272.56;;;38.76;21.41
62124;BME280;48110;47.532;19.078;2022-07-29T10:15:29;100273.34;;;40.20;20.63
62124;BME280;48110;47.532;19.078;2022-07-29T10:18:33;100271.50;;;41.22;19.52
62124;BME280;48110;47.532;19.078;2022-07-29T10:21:36;100264.03;;;39.16;20.91
62124;BME280;48110;47.532;19.078;2022-07-29T10:24:45;100255.94;;;37.73;22.99
62124;BME280;48110;47.532;19.078;2022-07-29T10:27:48;100265.56;;;37.52;23.32
62124;BME280;48110;47.532;19.078;2022-07-29T10:31:00;100257.53;;;38.93;21.60
62124;BME280;48110;47.532;19.078;2022-07-29T10:34:13;100247.13;;;40.40;20.04
62124;BME280;48110;47.532;19.078;2022-07-29T10:44:08;100239.00;;;39.89;20.29
62124;BME280;48110;47.532;19.078;2022-07-29T10:47:25;100245.84;;;36.89;23.21
62124;BME280;48110;47.532;19.078;2022-07-29T10:50:52;100245.81;;;35.33;25.61
62124;BME280;48110;47.532;19.078;2022-07-29T10:53:56;100231.88;;;35.50;25.27
62124;BME280;48110;47.532;19.078;2022-07-29T11:03:46;100223.81;;;35.24;25.66
62124;BME280;48110;47.532;19.078;2022-07-29T11:17:03;100220.88;;;41.13;19.87
62124;BME280;48110;47.532;19.078;2022-07-29T11:23:38;100214.81;;;42.99;17.28
62124;BME280;48110;47.532;19.078;2022-07-29T11:26:44;100209.44;;;45.54;15.10
62124;BME280;48110;47.532;19.078;2022-07-29T11:29:55;100208.94;;;46.77;13.81
62124;BME280;48110;47.532;19.078;2022-07-29T11:33:00;100202.78;;;44.98;14.93
62124;BME280;48110;47.532;19.078;2022-07-29T11:36:09;100194.75;;;45.22;14.97
62124;BME280;48110;47.532;19.078;2022-07-29T11:39:25;100193.91;;;45.35;14.66
62124;BME280;48110;47.532;19.078;2022-07-29T11:42:40;100184.88;;;43.93;15.60
62124;BME280;48110;47.532;19.078;2022-07-29T11:45:45;100189.22;;;43.80;15.77
62124;BME280;48110;47.532;19.078;2022-07-29T11:48:48;100184.53;;;41.65;17.56
62124;BME280;48110;47.532;19.078;2022-07-29T11:51:55;100178.00;;;43.69;16.02
62124;BME280;48110;47.532;19.078;2022-07-29T11:55:02;100178.16;;;46.21;14.03
62124;BME280;48110;47.532;19.078;2022-07-29T11:58:11;100175.94;;;45.22;14.82
62124;BME280;48110;47.532;19.078;2022-07-29T12:01:17;100175.41;;;46.11;13.46
62124;BME280;48110;47.532;19.078;2022-07-29T12:04:20;100172.25;;;47.59;12.43
62124;BME280;48110;47.532;19.078;2022-07-29T12:07:30;100170.41;;;47.75;12.54
62124;BME280;48110;47.532;19.078;2022-07-29T12:10:37;100171.81;;;48.14;13.05
62124;BME280;48110;47.532;19.078;2022-07-29T12:13:40;100169.44;;;47.85;12.41
62124;BME280;48110;47.532;19.078;2022-07-29T12:16:43;100167.66;;;46.74;14.32
62124;BME280;48110;47.532;19.078;2022-07-29T12:19:45;100155.97;;;47.13;13.20
62124;BME280;48110;47.532;19.078;2022-07-29T12:22:52;100149.31;;;46.21;13.09
62124;BME280;48110;47.532;19.078;2022-07-29T12:25:57;100146.00;;;45.81;13.39
62124;BME280;48110;47.532;19.078;2022-07-29T12:29:01;100142.66;;;46.04;13.02
62124;BME280;48110;47.532;19.078;2022-07-29T12:32:04;100141.63;;;44.93;13.89
62124;BME280;48110;47.532;19.078;2022-07-29T12:35:19;100136.94;;;45.60;13.35
62124;BME280;48110;47.532;19.078;2022-07-29T12:38:23;100138.50;;;47.85;12.01
62124;BME280;48110;47.532;19.078;2022-07-29T12:41:28;100130.28;;;48.64;11.00
62124;BME280;48110;47.532;19.078;2022-07-29T12:44:48;100121.84;;;49.24;10.72
62124;BME280;48110;47.532;19.078;2022-07-29T12:47:51;100109.16;;;47.02;12.45
62124;BME280;48110;47.532;19.078;2022-07-29T12:50:59;100111.84;;;46.42;12.65
62124;BME280;48110;47.532;19.078;2022-07-29T12:54:09;100103.97;;;47.01;12.32
62124;BME280;48110;47.532;19.078;2022-07-29T12:57:12;100113.75;;;47.77;12.04
62124;BME280;48110;47.532;19.078;2022-07-29T13:00:23;100104.66;;;49.34;11.29
62124;BME280;48110;47.532;19.078;2022-07-29T13:03:26;100108.25;;;50.64;10.07
62124;BME280;48110;47.532;19.078;2022-07-29T13:06:41;100097.41;;;46.40;12.59
62124;BME280;48110;47.532;19.078;2022-07-29T13:09:49;100095.84;;;47.37;12.11
62124;BME280;48110;47.532;19.078;2022-07-29T13:16:08;100085.44;;;45.91;12.85
62124;BME280;48110;47.532;19.078;2022-07-29T13:19:14;100079.03;;;48.53;10.84
62124;BME280;48110;47.532;19.078;2022-07-29T13:22:18;100076.91;;;50.88;9.77
62124;BME280;48110;47.532;19.078;2022-07-29T13:25:30;100076.78;;;50.78;9.68
62124;BME280;48110;47.532;19.078;2022-07-29T13:28:33;100073.97;;;46.23;12.37
62124;BME280;48110;47.532;19.078;2022-07-29T13:31:36;100065.97;;;46.59;12.40
62124;BME280;48110;47.532;19.078;2022-07-29T13:34:39;100066.00;;;45.66;13.03
62124;BME280;48110;47.532;19.078;2022-07-29T13:37:43;100066.84;;;48.40;11.73
62124;BME280;48110;47.532;19.078;2022-07-29T13:40:45;100070.22;;;48.08;11.47
62124;BME280;48110;47.532;19.078;2022-07-29T13:43:48;100058.13;;;48.31;11.19
62124;BME280;48110;47.532;19.078;2022-07-29T13:46:51;100056.00;;;44.99;13.46
62124;BME280;48110;47.532;19.078;2022-07-29T13:49:54;100043.50;;;41.91;16.36
62124;BME280;48110;47.532;19.078;2022-07-29T13:52:57;100046.31;;;39.55;18.19
62124;BME280;48110;47.532;19.078;2022-07-29T13:56:00;100045.75;;;37.09;21.22
62124;BME280;48110;47.532;19.078;2022-07-29T13:59:03;100033.56;;;39.09;19.79
62124;BME280;48110;47.532;19.078;2022-07-29T14:02:06;100031.84;;;44.43;15.03
62124;BME280;48110;47.532;19.078;2022-07-29T14:05:09;100037.19;;;45.07;14.61
62124;BME280;48110;47.532;19.078;2022-07-29T14:08:12;100029.47;;;45.25;14.25
62124;BME280;48110;47.532;19.078;2022-07-29T14:11:15;100025.53;;;44.04;14.38
62124;BME280;48110;47.532;19.078;2022-07-29T14:14:18;100023.84;;;41.73;16.58
62124;BME280;48110;47.532;19.078;2022-07-29T14:17:21;100019.69;;;39.51;18.46
62124;BME280;48110;47.532;19.078;2022-07-29T14:20:25;100013.06;;;37.27;20.71
62124;BME280;48110;47.532;19.078;2022-07-29T14:23:28;100006.97;;;36.53;22.42
62124;BME280;48110;47.532;19.078;2022-07-29T14:26:31;100005.59;;;40.65;17.55
62124;BME280;48110;47.532;19.078;2022-07-29T14:29:34;100014.31;;;43.26;15.28
62124;BME280;48110;47.532;19.078;2022-07-29T14:32:39;100013.00;;;44.69;14.05
62124;BME280;48110;47.532;19.078;2022-07-29T14:35:42;100010.59;;;42.79;15.09
62124;BME280;48110;47.532;19.078;2022-07-29T14:38:45;100004.16;;;40.78;17.66
62124;BME280;48110;47.532;19.078;2022-07-29T14:41:49;99987.13;;;39.48;18.82
62124;BME280;48110;47.532;19.078;2022-07-29T14:44:53;99996.62;;;38.86;19.46
62124;BME280;48110;47.532;19.078;2022-07-29T14:47:56;99987.19;;;37.51;20.34
62124;BME280;48110;47.532;19.078;2022-07-29T14:50:59;99979.94;;;38.09;20.30
62124;BME280;48110;47.532;19.078;2022-07-29T14:54:06;99983.56;;;38.13;19.96
62124;BME280;48110;47.532;19.078;2022-07-29T14:57:09;99974.97;;;38.72;19.48
62124;BME280;48110;47.532;19.078;2022-07-29T15:00:13;99975.34;;;38.90;19.49
62124;BME280;48110;47.532;19.078;2022-07-29T15:03:16;99966.56;;;37.79;20.02
62124;BME280;48110;47.532;19.078;2022-07-29T15:06:26;99957.69;;;37.42;20.99
62124;BME280;48110;47.532;19.078;2022-07-29T15:09:29;99952.78;;;36.77;22.25
62124;BME280;48110;47.532;19.078;2022-07-29T15:12:32;99956.13;;;36.42;21.06
62124;BME280;48110;47.532;19.078;2022-07-29T15:15:35;99960.97;;;36.45;21.77
62124;BME280;48110;47.532;19.078;2022-07-29T15:18:38;99955.41;;;37.01;21.42
62124;BME280;48110;47.532;19.078;2022-07-29T15:21:40;99954.41;;;37.37;20.58
62124;BME280;48110;47.532;19.078;2022-07-29T15:24:49;99957.75;;;39.47;18.37
62124;BME280;48110;47.532;19.078;2022-07-29T15:27:52;99948.31;;;40.97;17.69
62124;BME280;48110;47.532;19.078;2022-07-29T15:31:00;99946.16;;;40.47;17.58
62124;BME280;48110;47.532;19.078;2022-07-29T15:34:03;99946.03;;;41.06;17.09
62124;BME280;48110;47.532;19.078;2022-07-29T15:37:07;99948.88;;;40.13;18.02
62124;BME280;48110;47.532;19.078;2022-07-29T15:40:10;99950.00;;;38.91;18.69
62124;BME280;48110;47.532;19.078;2022-07-29T15:43:13;99949.69;;;37.69;20.17
62124;BME280;48110;47.532;19.078;2022-07-29T15:46:18;99940.63;;;36.66;20.99
62124;BME280;48110;47.532;19.078;2022-07-29T15:49:40;99935.03;;;35.98;21.94
62124;BME280;48110;47.532;19.078;2022-07-29T15:52:50;99926.50;;;35.30;22.52
62124;BME280;48110;47.532;19.078;2022-07-29T15:55:53;99934.47;;;34.99;24.21
62124;BME280;48110;47.532;19.078;2022-07-29T15:58:58;99926.06;;;34.62;23.40
62124;BME280;48110;47.532;19.078;2022-07-29T16:02:03;99927.16;;;34.49;24.53
62124;BME280;48110;47.532;19.078;2022-07-29T16:05:06;99919.69;;;34.50;23.95
62124;BME280;48110;47.532;19.078;2022-07-29T16:08:10;99918.22;;;34.11;25.99
62124;BME280;48110;47.532;19.078;2022-07-29T16:11:13;99919.94;;;33.94;25.83
62124;BME280;48110;47.532;19.078;2022-07-29T16:14:16;99914.91;;;34.26;25.01
62124;BME280;48110;47.532;19.078;2022-07-29T16:17:19;99924.84;;;35.05;24.40
62124;BME280;48110;47.532;19.078;2022-07-29T16:20:22;99928.47;;;34.84;23.51
62124;BME280;48110;47.532;19.078;2022-07-29T16:23:25;99927.66;;;34.63;23.88
62124;BME280;48110;47.532;19.078;2022-07-29T16:26:28;99924.59;;;34.85;23.91
62124;BME280;48110;47.532;19.078;2022-07-29T16:29:31;99914.78;;;34.22;24.43
62124;BME280;48110;47.532;19.078;2022-07-29T16:32:34;99917.66;;;33.96;24.95